Time;durP1;ratioP1;P1;durP2;ratioP2;P2;SDS_P1;SDS_P2;PMS_P1;PMS_P2;Temp;Humidity;BMP_temperature;BMP_pressure;BME280_temperature;BME280_humidity;BME280_pressure;Samples;Min_cycle;Max_cycle;Signal;HPM_P1;HPM_P2
2022/01/10 00:01:52;;;;;;;0.77;0.77;;;;;;;;;;5027457;28;20447;-65
2022/01/10 00:04:18;;;;;;;1.40;0.70;;;;;;;;;;5027952;28;20918;-67
2022/01/10 00:06:45;;;;;;;0.70;0.70;;;;;;;;;;5027047;28;20867;-65
2022/01/10 00:09:11;;;;;;;0.90;0.90;;;;;;;;;;5026854;28;20439;-65
2022/01/10 00:11:37;;;;;;;0.60;0.60;;;;;;;;;;5027833;28;20491;-65
2022/01/10 00:14:03;;;;;;;1.53;1.47;;;;;;;;;;5027173;28;20423;-66
2022/01/10 00:16:29;;;;;;;0.50;0.50;;;;;;;;;;5024653;28;21098;-65
2022/01/10 00:18:55;;;;;;;0.50;0.50;;;;;;;;;;5027512;28;20521;-65
2022/01/10 00:21:21;;;;;;;1.23;1.23;;;;;;;;;;5025825;28;20453;-66
2022/01/10 00:23:47;;;;;;;0.80;0.80;;;;;;;;;;5025964;28;20859;-67
2022/01/10 00:26:13;;;;;;;0.80;0.80;;;;;;;;;;5027503;28;20439;-67
2022/01/10 00:28:39;;;;;;;0.63;0.63;;;;;;;;;;5027953;28;20435;-65
2022/01/10 00:31:04;;;;;;;0.77;0.77;;;;;;;;;;5027084;28;20476;-65
2022/01/10 00:33:30;;;;;;;0.80;0.80;;;;;;;;;;5027429;28;20435;-65
2022/01/10 00:35:56;;;;;;;0.50;0.50;;;;;;;;;;5028238;28;20482;-64
2022/01/10 00:38:22;;;;;;;0.63;0.63;;;;;;;;;;5027633;28;20428;-65
2022/01/10 00:40:50;;;;;;;0.90;0.90;;;;;;;;;;5026973;28;20470;-66
2022/01/10 00:43:32;;;;;;;0.90;0.90;;;;;;;;;;5028089;28;20790;-66
2022/01/10 00:45:59;;;;;;;0.90;0.90;;;;;;;;;;5027181;28;20423;-71
2022/01/10 00:48:25;;;;;;;0.60;0.60;;;;;;;;;;5027432;28;20439;-67
2022/01/10 00:50:51;;;;;;;0.50;0.50;;;;;;;;;;5027236;28;20450;-66
2022/01/10 00:53:17;;;;;;;0.70;0.70;;;;;;;;;;5027771;28;20433;-65
2022/01/10 00:55:43;;;;;;;0.83;0.83;;;;;;;;;;5026825;28;20549;-65
2022/01/10 00:58:09;;;;;;;0.70;0.70;;;;;;;;;;5027964;28;20438;-65
2022/01/10 01:00:35;;;;;;;0.73;0.73;;;;;;;;;;5025442;28;20543;-66
2022/01/10 01:03:01;;;;;;;0.87;0.87;;;;;;;;;;5027777;28;20443;-65
2022/01/10 01:05:29;;;;;;;0.83;0.83;;;;;;;;;;5029210;28;20439;-66
2022/01/10 01:07:58;;;;;;;1.03;1.03;;;;;;;;;;5031334;28;20702;-65
2022/01/10 01:13:01;;;;;;;0.63;0.63;;;;;;;;;;5031642;28;20840;-66
2022/01/10 01:15:33;;;;;;;0.63;0.63;;;;;;;;;;5029921;28;20970;-65
2022/01/10 01:20:44;;;;;;;0.60;0.60;;;;;;;;;;5030813;28;20443;-69
2022/01/10 01:26:01;;;;;;;0.60;0.60;;;;;;;;;;5029787;28;21004;-65
2022/01/10 01:28:27;;;;;;;0.73;0.73;;;;;;;;;;5029407;28;20435;-67
2022/01/10 01:30:53;;;;;;;0.80;0.80;;;;;;;;;;5030843;28;20423;-69
2022/01/10 01:33:20;;;;;;;1.23;0.93;;;;;;;;;;5030068;28;20542;-67
2022/01/10 01:35:47;;;;;;;0.60;0.60;;;;;;;;;;5031592;28;20578;-67
2022/01/10 01:38:13;;;;;;;0.60;0.60;;;;;;;;;;5031746;28;20438;-65
2022/01/10 01:40:45;;;;;;;0.40;0.40;;;;;;;;;;5028055;28;20475;-67
2022/01/10 01:43:11;;;;;;;1.13;0.80;;;;;;;;;;5030758;28;20935;-65
2022/01/10 01:45:38;;;;;;;0.50;0.50;;;;;;;;;;5029198;28;20443;-65
2022/01/10 01:48:04;;;;;;;2.13;0.60;;;;;;;;;;5030195;28;20447;-65
2022/01/10 01:50:30;;;;;;;0.80;0.80;;;;;;;;;;5028956;28;20781;-67
2022/01/10 01:52:56;;;;;;;0.40;0.40;;;;;;;;;;5030213;28;20435;-66
2022/01/10 01:55:22;;;;;;;0.67;0.67;;;;;;;;;;5028560;28;20470;-67
2022/01/10 01:57:48;;;;;;;0.50;0.50;;;;;;;;;;5031485;28;20433;-67
2022/01/10 02:00:15;;;;;;;0.50;0.50;;;;;;;;;;5029032;28;20489;-66
2022/01/10 02:02:41;;;;;;;0.60;0.60;;;;;;;;;;5030622;28;20447;-67
2022/01/10 02:05:07;;;;;;;0.50;0.50;;;;;;;;;;5028158;28;20433;-65
2022/01/10 02:07:33;;;;;;;0.53;0.53;;;;;;;;;;5031110;28;20467;-65
2022/01/10 02:09:59;;;;;;;0.70;0.70;;;;;;;;;;5030116;28;20439;-66
2022/01/10 02:12:25;;;;;;;0.73;0.73;;;;;;;;;;5030371;28;20628;-65
2022/01/10 02:14:51;;;;;;;0.90;0.60;;;;;;;;;;5028437;28;20445;-65
2022/01/10 02:17:22;;;;;;;0.80;0.80;;;;;;;;;;5029275;28;20486;-64
2022/01/10 02:19:54;;;;;;;0.70;0.70;;;;;;;;;;5029725;28;20442;-65
2022/01/10 02:22:20;;;;;;;0.80;0.80;;;;;;;;;;5029956;28;20451;-65
2022/01/10 02:24:47;;;;;;;0.90;0.90;;;;;;;;;;5028872;28;20481;-68
2022/01/10 02:27:13;;;;;;;0.97;0.97;;;;;;;;;;5030208;28;20569;-65
2022/01/10 02:29:38;;;;;;;0.63;0.63;;;;;;;;;;5029113;28;20528;-65
2022/01/10 02:32:05;;;;;;;5.23;1.07;;;;;;;;;;5029844;28;20446;-65
2022/01/10 02:34:31;;;;;;;1.43;1.43;;;;;;;;;;5028196;28;20438;-65
2022/01/10 02:36:58;;;;;;;4.00;1.00;;;;;;;;;;5030976;28;20490;-65
2022/01/10 02:39:25;;;;;;;0.73;0.73;;;;;;;;;;5026616;28;20447;-67
2022/01/10 02:41:51;;;;;;;1.03;1.00;;;;;;;;;;5031118;28;20490;-65
2022/01/10 02:44:18;;;;;;;3.60;1.30;;;;;;;;;;5027779;28;20478;-66
2022/01/10 02:46:44;;;;;;;2.73;1.50;;;;;;;;;;5030308;28;20432;-65
2022/01/10 02:49:11;;;;;;;1.43;1.43;;;;;;;;;;5027700;28;21329;-64
2022/01/10 02:51:38;;;;;;;2.40;0.97;;;;;;;;;;5030351;28;20435;-65
2022/01/10 02:54:04;;;;;;;1.00;1.00;;;;;;;;;;5028131;28;20455;-65
2022/01/10 02:56:30;;;;;;;0.97;0.87;;;;;;;;;;5030451;28;20482;-65
2022/01/10 02:58:56;;;;;;;0.80;0.80;;;;;;;;;;5028536;28;20438;-65
2022/01/10 03:01:22;;;;;;;0.70;0.70;;;;;;;;;;5028986;28;20463;-65
2022/01/10 03:03:48;;;;;;;1.40;0.90;;;;;;;;;;5026232;28;20791;-64
2022/01/10 03:06:13;;;;;;;0.90;0.90;;;;;;;;;;5030501;28;20510;-65
2022/01/10 03:08:39;;;;;;;0.67;0.53;;;;;;;;;;5028000;28;20443;-65
2022/01/10 03:11:05;;;;;;;0.70;0.70;;;;;;;;;;5029347;28;20470;-66
2022/01/10 03:13:31;;;;;;;0.80;0.80;;;;;;;;;;5027537;28;20952;-65
2022/01/10 03:15:57;;;;;;;0.93;0.93;;;;;;;;;;5030532;28;20524;-65
2022/01/10 03:18:24;;;;;;;0.83;0.83;;;;;;;;;;5027889;28;21085;-66
2022/01/10 03:20:50;;;;;;;0.80;0.80;;;;;;;;;;5028429;28;20530;-65
2022/01/10 03:23:16;;;;;;;0.70;0.70;;;;;;;;;;5025625;28;20458;-65
2022/01/10 03:25:42;;;;;;;0.83;0.83;;;;;;;;;;5029428;28;20431;-66
2022/01/10 03:28:10;;;;;;;0.60;0.60;;;;;;;;;;5025243;28;20439;-65
2022/01/10 03:30:36;;;;;;;0.70;0.70;;;;;;;;;;5027685;28;20438;-66
2022/01/10 03:33:04;;;;;;;0.90;0.90;;;;;;;;;;5028200;28;20771;-67
2022/01/10 03:35:30;;;;;;;1.00;1.00;;;;;;;;;;5028821;28;20540;-65
2022/01/10 03:37:56;;;;;;;1.00;1.00;;;;;;;;;;5028532;28;20428;-64
2022/01/10 03:40:22;;;;;;;1.00;1.00;;;;;;;;;;5028716;28;20799;-67
2022/01/10 03:42:48;;;;;;;1.10;1.10;;;;;;;;;;5028084;28;20454;-64
2022/01/10 03:45:14;;;;;;;1.27;1.27;;;;;;;;;;5027608;28;20423;-65
2022/01/10 03:47:40;;;;;;;1.07;1.07;;;;;;;;;;5029743;28;20488;-65
2022/01/10 03:50:07;;;;;;;1.07;1.07;;;;;;;;;;5026883;28;20449;-64
2022/01/10 03:52:33;;;;;;;1.20;1.20;;;;;;;;;;5028361;28;20931;-66
2022/01/10 03:55:00;;;;;;;1.30;1.30;;;;;;;;;;5027501;28;20477;-65
2022/01/10 03:57:27;;;;;;;1.20;1.20;;;;;;;;;;5029342;28;20494;-67
2022/01/10 03:59:53;;;;;;;1.10;1.10;;;;;;;;;;5027049;28;20548;-67
2022/01/10 04:02:19;;;;;;;1.27;1.27;;;;;;;;;;5027353;28;20443;-65
2022/01/10 04:04:45;;;;;;;1.27;1.17;;;;;;;;;;5026282;28;20431;-64
2022/01/10 04:07:12;;;;;;;1.00;1.00;;;;;;;;;;5028508;28;20442;-65
2022/01/10 04:09:38;;;;;;;0.70;0.70;;;;;;;;;;5027151;28;20492;-65
2022/01/10 04:12:04;;;;;;;1.70;1.00;;;;;;;;;;5027577;28;20451;-64
2022/01/10 04:14:30;;;;;;;0.77;0.77;;;;;;;;;;5025220;28;20427;-65
2022/01/10 04:16:56;;;;;;;1.03;1.03;;;;;;;;;;5028950;28;20487;-66
2022/01/10 04:19:22;;;;;;;1.47;1.47;;;;;;;;;;5027125;28;20927;-65
2022/01/10 04:21:48;;;;;;;1.50;0.90;;;;;;;;;;5028329;28;20439;-65
2022/01/10 04:24:15;;;;;;;1.13;1.13;;;;;;;;;;5025769;28;20500;-64
2022/01/10 04:26:41;;;;;;;0.70;0.70;;;;;;;;;;5029236;28;20899;-67
2022/01/10 04:29:07;;;;;;;0.90;0.90;;;;;;;;;;5026957;28;20466;-66
2022/01/10 04:31:34;;;;;;;0.67;0.67;;;;;;;;;;5028152;28;20946;-65
2022/01/10 04:33:59;;;;;;;2.53;1.10;;;;;;;;;;5026199;28;20420;-64
2022/01/10 04:36:25;;;;;;;0.90;0.90;;;;;;;;;;5027675;28;20494;-71
2022/01/10 04:38:52;;;;;;;1.30;1.30;;;;;;;;;;5026811;28;20501;-65
2022/01/10 04:41:19;;;;;;;1.57;1.00;;;;;;;;;;5031617;28;20486;-67
2022/01/10 04:43:45;;;;;;;0.80;0.80;;;;;;;;;;5030443;28;20501;-73
2022/01/10 04:46:11;;;;;;;0.90;0.90;;;;;;;;;;5032180;28;20923;-70
2022/01/10 04:48:37;;;;;;;0.77;0.77;;;;;;;;;;5031038;28;20442;-68
2022/01/10 04:51:13;;;;;;;4.40;2.73;;;;;;;;;;5030697;28;20431;-67
2022/01/10 04:53:40;;;;;;;1.10;1.10;;;;;;;;;;5029119;28;20450;-66
2022/01/10 04:56:06;;;;;;;1.27;1.20;;;;;;;;;;5030042;28;20492;-65
2022/01/10 04:58:34;;;;;;;1.03;1.03;;;;;;;;;;5029709;28;20806;-65
2022/01/10 05:01:01;;;;;;;0.70;0.70;;;;;;;;;;5032439;28;20439;-70
2022/01/10 05:03:27;;;;;;;1.30;1.30;;;;;;;;;;5029011;28;20811;-65
2022/01/10 05:05:54;;;;;;;1.23;1.23;;;;;;;;;;5033193;28;20441;-70
2022/01/10 05:08:22;;;;;;;1.30;1.20;;;;;;;;;;5025256;28;20538;-65
2022/01/10 05:10:49;;;;;;;1.73;1.73;;;;;;;;;;5031443;28;20453;-64
2022/01/10 05:13:15;;;;;;;2.23;2.03;;;;;;;;;;5029656;28;20446;-67
2022/01/10 05:15:42;;;;;;;1.93;1.83;;;;;;;;;;5029677;28;20497;-64
2022/01/10 05:18:09;;;;;;;1.73;1.67;;;;;;;;;;5029977;28;20463;-65
2022/01/10 05:20:36;;;;;;;1.53;1.50;;;;;;;;;;5031237;28;20784;-67
2022/01/10 05:23:02;;;;;;;1.80;1.70;;;;;;;;;;5029526;28;20453;-65
2022/01/10 05:25:28;;;;;;;3.10;2.50;;;;;;;;;;5030766;28;20537;-66
2022/01/10 05:27:54;;;;;;;1.73;1.73;;;;;;;;;;5029176;28;20447;-65
2022/01/10 05:30:20;;;;;;;2.63;2.43;;;;;;;;;;5031054;28;20481;-65
2022/01/10 05:32:46;;;;;;;2.03;2.03;;;;;;;;;;5029359;28;20995;-65
2022/01/10 05:35:12;;;;;;;3.13;2.20;;;;;;;;;;5030296;28;20522;-64
2022/01/10 05:37:38;;;;;;;2.60;2.50;;;;;;;;;;5029595;28;20461;-64
2022/01/10 05:40:05;;;;;;;2.30;2.20;;;;;;;;;;5030790;28;20462;-65
2022/01/10 05:42:30;;;;;;;2.60;2.50;;;;;;;;;;5029260;28;20518;-65
2022/01/10 05:44:56;;;;;;;4.17;2.30;;;;;;;;;;5028732;28;20560;-64
2022/01/10 05:47:22;;;;;;;2.40;2.30;;;;;;;;;;5029421;28;20447;-64
2022/01/10 05:49:49;;;;;;;9.03;2.30;;;;;;;;;;5032351;28;20922;-65
2022/01/10 05:52:15;;;;;;;3.23;3.13;;;;;;;;;;5028838;28;20815;-65
2022/01/10 05:54:41;;;;;;;3.37;3.17;;;;;;;;;;5028011;28;20451;-64
2022/01/10 05:57:07;;;;;;;3.10;2.97;;;;;;;;;;5028523;28;20505;-64
2022/01/10 05:59:34;;;;;;;3.93;3.77;;;;;;;;;;5031010;28;20558;-65
2022/01/10 06:02:00;;;;;;;8.80;7.60;;;;;;;;;;5029853;28;20434;-64
2022/01/10 06:04:26;;;;;;;3.33;3.23;;;;;;;;;;5029632;28;20435;-64
2022/01/10 06:06:52;;;;;;;3.27;3.03;;;;;;;;;;5025307;28;20444;-64
2022/01/10 06:09:18;;;;;;;3.07;2.97;;;;;;;;;;5028757;28;20825;-64
2022/01/10 06:11:45;;;;;;;2.33;2.33;;;;;;;;;;5030317;28;20439;-64
2022/01/10 06:14:11;;;;;;;2.37;2.37;;;;;;;;;;5028665;28;20443;-64
2022/01/10 06:16:37;;;;;;;1.77;1.77;;;;;;;;;;5029787;28;20577;-64
2022/01/10 06:19:03;;;;;;;3.90;2.00;;;;;;;;;;5029575;28;20470;-64
2022/01/10 06:21:29;;;;;;;3.70;2.30;;;;;;;;;;5030327;28;20467;-64
2022/01/10 06:23:55;;;;;;;1.60;1.60;;;;;;;;;;5027895;28;20974;-64
2022/01/10 06:26:21;;;;;;;1.80;1.80;;;;;;;;;;5031218;28;20489;-64
2022/01/10 06:28:47;;;;;;;2.03;2.03;;;;;;;;;;5028930;28;20790;-64
2022/01/10 06:31:13;;;;;;;2.17;2.07;;;;;;;;;;5030656;28;20441;-64
2022/01/10 06:33:40;;;;;;;2.00;2.00;;;;;;;;;;5027680;28;20472;-64
2022/01/10 06:36:08;;;;;;;4.60;4.20;;;;;;;;;;5029144;28;20692;-65
2022/01/10 06:38:35;;;;;;;39.90;16.03;;;;;;;;;;5027385;28;20467;-64
2022/01/10 06:41:01;;;;;;;51.87;24.57;;;;;;;;;;5030352;28;20471;-64
2022/01/10 06:43:26;;;;;;;32.43;16.20;;;;;;;;;;5029191;28;20439;-64
2022/01/10 06:45:52;;;;;;;17.50;10.70;;;;;;;;;;5032046;28;20599;-64
2022/01/10 06:48:18;;;;;;;12.70;8.23;;;;;;;;;;5028576;28;20451;-65
2022/01/10 06:50:47;;;;;;;13.87;5.53;;;;;;;;;;5025893;28;20473;-64
2022/01/10 06:53:14;;;;;;;5.57;5.10;;;;;;;;;;5028199;28;20419;-65
2022/01/10 06:55:40;;;;;;;4.80;4.30;;;;;;;;;;5028166;28;20471;-64
2022/01/10 06:58:06;;;;;;;4.50;4.20;;;;;;;;;;5028404;28;20439;-67
2022/01/10 07:00:32;;;;;;;3.57;3.47;;;;;;;;;;5028562;28;20442;-65
2022/01/10 07:02:58;;;;;;;3.30;3.10;;;;;;;;;;5027628;28;20439;-68
2022/01/10 07:05:24;;;;;;;3.90;3.80;;;;;;;;;;5029015;28;20431;-64
2022/01/10 07:07:50;;;;;;;2.57;2.47;;;;;;;;;;5028614;28;20571;-64
2022/01/10 07:10:16;;;;;;;3.77;3.57;;;;;;;;;;5031078;28;20427;-64
2022/01/10 07:12:42;;;;;;;4.10;3.90;;;;;;;;;;5028080;28;20493;-64
2022/01/10 07:15:08;;;;;;;5.80;5.27;;;;;;;;;;5028157;28;20510;-65
2022/01/10 07:17:34;;;;;;;10.93;7.73;;;;;;;;;;5043847;28;20491;-64
2022/01/10 07:20:00;;;;;;;7.70;7.00;;;;;;;;;;5030259;28;20880;-64
2022/01/10 07:22:27;;;;;;;7.53;6.20;;;;;;;;;;5026343;28;20451;-64
2022/01/10 07:24:53;;;;;;;4.00;3.70;;;;;;;;;;5028216;28;20440;-64
2022/01/10 07:27:19;;;;;;;4.87;3.63;;;;;;;;;;5025337;28;20454;-64
2022/01/10 07:29:46;;;;;;;3.90;3.70;;;;;;;;;;5029151;28;20496;-64
2022/01/10 07:32:12;;;;;;;3.30;3.07;;;;;;;;;;5026267;28;20534;-64
2022/01/10 07:34:38;;;;;;;3.47;3.27;;;;;;;;;;5028155;28;20526;-64
2022/01/10 07:37:04;;;;;;;3.10;3.00;;;;;;;;;;5010622;28;21006;-63
2022/01/10 07:39:30;;;;;;;6.13;4.93;;;;;;;;;;5029611;28;20438;-64
2022/01/10 07:41:56;;;;;;;5.87;4.90;;;;;;;;;;5029201;28;20566;-64
2022/01/10 07:44:22;;;;;;;6.37;5.80;;;;;;;;;;5027656;28;20461;-67
2022/01/10 07:46:48;;;;;;;5.93;5.43;;;;;;;;;;5025628;28;20443;-64
2022/01/10 07:49:14;;;;;;;5.53;5.17;;;;;;;;;;5022925;28;20438;-65
2022/01/10 07:51:40;;;;;;;5.30;4.90;;;;;;;;;;5026207;28;20943;-64
2022/01/10 07:54:06;;;;;;;4.50;4.10;;;;;;;;;;5027041;28;20522;-66
2022/01/10 07:56:32;;;;;;;4.40;4.20;;;;;;;;;;5026791;28;20818;-66
2022/01/10 07:58:58;;;;;;;4.57;4.20;;;;;;;;;;5028357;28;20443;-64
2022/01/10 08:01:24;;;;;;;7.80;5.80;;;;;;;;;;5025711;28;20454;-64
2022/01/10 08:03:51;;;;;;;5.77;5.40;;;;;;;;;;5027270;28;20819;-67
2022/01/10 08:06:21;;;;;;;6.23;5.63;;;;;;;;;;5027266;28;20993;-64
2022/01/10 08:08:47;;;;;;;4.80;4.50;;;;;;;;;;5028284;28;20501;-65
2022/01/10 08:11:13;;;;;;;4.10;3.80;;;;;;;;;;5025698;28;20439;-65
2022/01/10 08:13:41;;;;;;;4.70;4.37;;;;;;;;;;5025531;28;20984;-67
2022/01/10 08:16:07;;;;;;;4.17;3.97;;;;;;;;;;5027024;28;20483;-65
2022/01/10 08:18:34;;;;;;;7.93;4.33;;;;;;;;;;5027322;28;20490;-65
2022/01/10 08:21:06;;;;;;;5.10;4.80;;;;;;;;;;5026983;28;20923;-64
2022/01/10 08:23:32;;;;;;;4.27;4.07;;;;;;;;;;5026778;28;20502;-67
2022/01/10 08:25:58;;;;;;;14.67;9.80;;;;;;;;;;5024446;28;20428;-64
2022/01/10 08:28:24;;;;;;;5.00;4.67;;;;;;;;;;5028032;28;20426;-64
2022/01/10 08:30:51;;;;;;;5.43;4.93;;;;;;;;;;5026331;28;20419;-63
2022/01/10 08:33:17;;;;;;;5.83;5.47;;;;;;;;;;5028274;28;20442;-64
2022/01/10 08:35:43;;;;;;;5.33;5.00;;;;;;;;;;5026781;28;20609;-68
2022/01/10 08:38:09;;;;;;;5.20;4.87;;;;;;;;;;5027665;28;20920;-65
2022/01/10 08:40:35;;;;;;;4.23;4.13;;;;;;;;;;5028273;28;20469;-65
2022/01/10 08:43:06;;;;;;;4.47;4.17;;;;;;;;;;5026963;28;20947;-66
2022/01/10 08:45:35;;;;;;;3.70;3.60;;;;;;;;;;5028635;28;20411;-65
2022/01/10 08:48:01;;;;;;;3.90;3.60;;;;;;;;;;5021882;28;21907;-65
2022/01/10 08:50:27;;;;;;;4.43;4.03;;;;;;;;;;5025943;28;20431;-65
2022/01/10 08:52:53;;;;;;;5.40;3.93;;;;;;;;;;5030708;28;20470;-65
2022/01/10 08:55:19;;;;;;;5.40;5.00;;;;;;;;;;5010039;28;20438;-65
2022/01/10 08:57:45;;;;;;;13.00;7.97;;;;;;;;;;5023499;28;20467;-66
2022/01/10 09:00:11;;;;;;;4.50;4.13;;;;;;;;;;5028656;28;20435;-66
2022/01/10 09:02:37;;;;;;;3.83;3.53;;;;;;;;;;5026240;28;20455;-65
2022/01/10 09:05:04;;;;;;;4.20;3.10;;;;;;;;;;5027491;28;20461;-65
2022/01/10 09:07:30;;;;;;;2.90;2.80;;;;;;;;;;5024928;28;20935;-65
2022/01/10 09:09:56;;;;;;;2.80;2.60;;;;;;;;;;5026217;28;20557;-65
2022/01/10 09:12:22;;;;;;;3.13;3.00;;;;;;;;;;5025520;28;20471;-65
2022/01/10 09:14:48;;;;;;;2.80;2.70;;;;;;;;;;5024670;28;20954;-65
2022/01/10 09:17:14;;;;;;;2.57;2.47;;;;;;;;;;5025015;28;20493;-65
2022/01/10 09:19:40;;;;;;;4.73;2.63;;;;;;;;;;5023458;28;20812;-66
2022/01/10 09:22:06;;;;;;;3.50;3.37;;;;;;;;;;5023234;28;20435;-65
2022/01/10 09:24:32;;;;;;;3.07;2.30;;;;;;;;;;5026822;28;20518;-64
2022/01/10 09:26:58;;;;;;;2.33;2.33;;;;;;;;;;5026096;28;20764;-64
2022/01/10 09:29:24;;;;;;;3.60;2.73;;;;;;;;;;5030397;28;20462;-65
2022/01/10 09:31:50;;;;;;;2.77;2.73;;;;;;;;;;5028688;28;20436;-64
2022/01/10 09:34:16;;;;;;;3.27;3.00;;;;;;;;;;5029393;28;20450;-64
2022/01/10 09:36:42;;;;;;;9.17;3.20;;;;;;;;;;5029650;28;20490;-64
2022/01/10 09:39:09;;;;;;;3.17;2.80;;;;;;;;;;5032067;28;20428;-64
2022/01/10 09:41:35;;;;;;;3.40;3.30;;;;;;;;;;5030199;28;21037;-64
2022/01/10 09:44:03;;;;;;;2.87;2.77;;;;;;;;;;5030303;28;20423;-64
2022/01/10 09:46:30;;;;;;;3.93;3.73;;;;;;;;;;5028813;28;20931;-66
2022/01/10 09:49:01;;;;;;;3.97;3.40;;;;;;;;;;5028835;28;20426;-64
2022/01/10 09:51:28;;;;;;;3.30;3.20;;;;;;;;;;5030102;28;20491;-64
2022/01/10 09:53:55;;;;;;;4.23;3.17;;;;;;;;;;5030804;28;20442;-66
2022/01/10 09:56:21;;;;;;;3.80;3.60;;;;;;;;;;5030354;28;20514;-63
2022/01/10 09:58:47;;;;;;;3.67;3.40;;;;;;;;;;5030603;28;20427;-64
2022/01/10 10:01:14;;;;;;;2.80;2.70;;;;;;;;;;5029940;28;20428;-64
2022/01/10 10:03:43;;;;;;;3.50;3.20;;;;;;;;;;5030948;28;20500;-63
2022/01/10 10:06:09;;;;;;;3.77;3.47;;;;;;;;;;5030022;28;20431;-64
2022/01/10 10:08:38;;;;;;;3.33;3.17;;;;;;;;;;5030935;28;20931;-64
2022/01/10 10:11:06;;;;;;;3.83;3.53;;;;;;;;;;5028622;28;20473;-64
2022/01/10 10:13:35;;;;;;;2.60;2.53;;;;;;;;;;5030046;28;20423;-64
2022/01/10 10:16:01;;;;;;;3.83;3.67;;;;;;;;;;5030256;28;20502;-64
2022/01/10 10:18:30;;;;;;;4.73;3.70;;;;;;;;;;5032133;28;20827;-64
2022/01/10 10:20:56;;;;;;;2.93;2.83;;;;;;;;;;5029540;28;20416;-64
2022/01/10 10:23:23;;;;;;;4.57;4.30;;;;;;;;;;5029676;28;21026;-64
2022/01/10 10:25:50;;;;;;;6.87;3.33;;;;;;;;;;5029683;28;20423;-64
2022/01/10 10:28:16;;;;;;;4.03;3.83;;;;;;;;;;5030785;28;20439;-65
2022/01/10 10:30:42;;;;;;;3.60;3.40;;;;;;;;;;5029421;28;20426;-64
2022/01/10 10:33:15;;;;;;;3.50;3.40;;;;;;;;;;5029021;28;20861;-71
2022/01/10 10:35:42;;;;;;;6.33;3.97;;;;;;;;;;5025184;28;20533;-65
2022/01/10 10:38:08;;;;;;;4.97;3.60;;;;;;;;;;5030027;28;20487;-65
2022/01/10 10:40:45;;;;;;;6.93;3.80;;;;;;;;;;5028983;28;20501;-65
2022/01/10 10:43:12;;;;;;;5.60;4.30;;;;;;;;;;5031055;28;20453;-65
2022/01/10 10:45:38;;;;;;;6.80;4.53;;;;;;;;;;5028562;28;20474;-64
2022/01/10 10:48:09;;;;;;;4.50;4.13;;;;;;;;;;5026015;28;20450;-65
2022/01/10 10:50:41;;;;;;;4.83;4.50;;;;;;;;;;5028151;28;20443;-65
2022/01/10 10:53:09;;;;;;;4.57;3.73;;;;;;;;;;5030322;28;20450;-65
2022/01/10 10:55:37;;;;;;;4.50;3.73;;;;;;;;;;5027341;28;20431;-64
2022/01/10 10:58:03;;;;;;;26.52;11.85;;;;;;;;;;5028474;28;20421;-64
2022/01/10 11:00:29;;;;;;;16.10;8.97;;;;;;;;;;5028468;28;20200;-64
2022/01/10 11:02:55;;;;;;;26.53;16.30;;;;;;;;;;5030074;28;20431;-64
2022/01/10 11:05:21;;;;;;;49.23;23.17;;;;;;;;;;5026938;28;20468;-64
2022/01/10 11:07:47;;;;;;;6.10;5.60;;;;;;;;;;5029379;28;20439;-65
2022/01/10 11:10:13;;;;;;;6.60;6.00;;;;;;;;;;5027862;28;20434;-65
2022/01/10 11:12:44;;;;;;;5.50;4.97;;;;;;;;;;5026726;28;20443;-65
2022/01/10 11:15:10;;;;;;;4.20;3.97;;;;;;;;;;5026467;28;20434;-65
2022/01/10 11:17:39;;;;;;;10.87;3.13;;;;;;;;;;5029674;28;20483;-65
2022/01/10 11:20:19;;;;;;;8.00;3.50;;;;;;;;;;5025420;28;20431;-64
2022/01/10 11:22:46;;;;;;;9.77;4.43;;;;;;;;;;5030949;28;20554;-65
2022/01/10 11:25:19;;;;;;;16.23;3.93;;;;;;;;;;5025291;28;20439;-64
2022/01/10 11:27:46;;;;;;;6.80;4.23;;;;;;;;;;5028063;28;20444;-64
2022/01/10 11:30:26;;;;;;;6.43;4.00;;;;;;;;;;5026997;28;20849;-64
2022/01/10 11:32:56;;;;;;;6.33;5.80;;;;;;;;;;5027565;28;20462;-64
2022/01/10 11:35:26;;;;;;;17.53;4.37;;;;;;;;;;5025942;28;20439;-64
2022/01/10 11:37:52;;;;;;;5.00;3.83;;;;;;;;;;5027025;28;20451;-65
2022/01/10 11:40:19;;;;;;;3.53;3.20;;;;;;;;;;5026436;28;20423;-65
2022/01/10 11:42:53;;;;;;;5.20;4.30;;;;;;;;;;5027460;28;20471;-65
2022/01/10 11:45:19;;;;;;;9.97;4.43;;;;;;;;;;5025445;28;20439;-64
2022/01/10 11:48:15;;;;;;;5.43;3.93;;;;;;;;;;5026293;28;20451;-65
2022/01/10 11:50:44;;;;;;;4.43;4.10;;;;;;;;;;5013661;28;20455;-65
2022/01/10 11:53:11;;;;;;;3.70;3.40;;;;;;;;;;5026611;28;20427;-64
2022/01/10 11:55:44;;;;;;;8.03;4.07;;;;;;;;;;5009258;28;20485;-65
2022/01/10 11:58:27;;;;;;;4.93;4.40;;;;;;;;;;5022410;28;20717;-65
2022/01/10 12:01:05;;;;;;;4.10;3.70;;;;;;;;;;5026984;28;20439;-65
2022/01/10 12:03:31;;;;;;;4.87;3.50;;;;;;;;;;5028592;28;20945;-65
2022/01/10 12:05:57;;;;;;;4.27;3.47;;;;;;;;;;5027550;28;20423;-65
2022/01/10 12:08:23;;;;;;;4.90;3.53;;;;;;;;;;5024133;28;20815;-65
2022/01/10 12:10:49;;;;;;;7.23;2.90;;;;;;;;;;5023983;28;20469;-65
2022/01/10 12:13:16;;;;;;;3.80;3.57;;;;;;;;;;5027196;28;20545;-65
2022/01/10 12:15:42;;;;;;;11.57;3.20;;;;;;;;;;5028042;28;20427;-65
2022/01/10 12:18:08;;;;;;;6.97;4.20;;;;;;;;;;5025454;28;20532;-65
2022/01/10 12:20:35;;;;;;;10.63;3.37;;;;;;;;;;5024905;28;20923;-65
2022/01/10 12:23:01;;;;;;;3.90;3.37;;;;;;;;;;5026546;28;20443;-64
2022/01/10 12:25:28;;;;;;;3.17;2.93;;;;;;;;;;5025379;28;20486;-65
2022/01/10 12:27:56;;;;;;;5.50;3.20;;;;;;;;;;5025988;28;20461;-65
2022/01/10 12:30:25;;;;;;;8.43;4.57;;;;;;;;;;5026297;28;20533;-64
2022/01/10 12:32:51;;;;;;;4.30;4.10;;;;;;;;;;5029440;28;20435;-64
2022/01/10 12:35:18;;;;;;;4.10;3.63;;;;;;;;;;5026079;28;20907;-64
2022/01/10 12:37:44;;;;;;;5.30;4.80;;;;;;;;;;5029820;28;20474;-64
2022/01/10 12:40:10;;;;;;;19.00;4.20;;;;;;;;;;5027338;28;20488;-64
2022/01/10 12:42:36;;;;;;;11.20;4.17;;;;;;;;;;5029776;28;20439;-64
2022/01/10 12:45:03;;;;;;;9.20;3.00;;;;;;;;;;5026108;28;20428;-66
2022/01/10 12:47:29;;;;;;;6.10;3.00;;;;;;;;;;5029067;28;20427;-64
2022/01/10 12:49:55;;;;;;;6.63;4.93;;;;;;;;;;5023920;28;20451;-65
2022/01/10 12:52:22;;;;;;;5.93;4.40;;;;;;;;;;5029614;28;20974;-65
2022/01/10 12:54:48;;;;;;;4.73;4.33;;;;;;;;;;5025331;28;20504;-66
2022/01/10 12:57:14;;;;;;;14.03;4.30;;;;;;;;;;5026839;28;20848;-65
2022/01/10 12:59:40;;;;;;;7.10;4.23;;;;;;;;;;5026893;28;20488;-65
2022/01/10 13:02:07;;;;;;;4.83;3.80;;;;;;;;;;5032026;28;20440;-65
2022/01/10 13:04:34;;;;;;;4.50;4.17;;;;;;;;;;5027870;28;20497;-65
2022/01/10 13:07:00;;;;;;;9.07;3.70;;;;;;;;;;5032061;28;20427;-66
2022/01/10 13:09:28;;;;;;;5.43;5.03;;;;;;;;;;5028943;28;20430;-65
2022/01/10 13:12:02;;;;;;;5.00;4.40;;;;;;;;;;5032345;28;20467;-65
2022/01/10 13:14:34;;;;;;;7.30;5.20;;;;;;;;;;5028495;28;20466;-65
2022/01/10 13:17:08;;;;;;;7.80;5.40;;;;;;;;;;5028944;28;20463;-66
2022/01/10 13:19:35;;;;;;;4.93;4.47;;;;;;;;;;5027914;28;20173;-65
2022/01/10 13:22:05;;;;;;;10.20;5.43;;;;;;;;;;5030394;28;20443;-66
2022/01/10 13:24:32;;;;;;;15.80;5.67;;;;;;;;;;5026277;28;20490;-65
2022/01/10 13:27:03;;;;;;;14.20;6.23;;;;;;;;;;5029287;28;20441;-65
2022/01/10 13:29:45;;;;;;;5.90;5.27;;;;;;;;;;5027444;28;20803;-63
2022/01/10 13:32:23;;;;;;;8.80;5.33;;;;;;;;;;5030417;28;20813;-66
2022/01/10 13:34:51;;;;;;;9.23;5.70;;;;;;;;;;5028851;28;20433;-68
2022/01/10 13:37:49;;;;;;;20.57;9.17;;;;;;;;;;5029911;28;20505;-65
2022/01/10 13:40:16;;;;;;;9.67;5.30;;;;;;;;;;5010007;28;20442;-65
2022/01/10 13:43:01;;;;;;;7.20;6.30;;;;;;;;;;5030559;28;20939;-64
2022/01/10 13:45:56;;;;;;;5.70;5.20;;;;;;;;;;5024735;28;20494;-65
2022/01/10 13:48:26;;;;;;;5.87;4.63;;;;;;;;;;5029992;28;20436;-66
2022/01/10 13:50:52;;;;;;;9.53;5.20;;;;;;;;;;5030791;28;20471;-64
2022/01/10 13:53:22;;;;;;;5.87;4.70;;;;;;;;;;5029954;28;20470;-66
2022/01/10 13:56:06;;;;;;;5.40;4.90;;;;;;;;;;5028077;28;20510;-66
2022/01/10 13:58:33;;;;;;;5.07;4.33;;;;;;;;;;5027477;28;20458;-65
2022/01/10 14:01:00;;;;;;;8.40;5.43;;;;;;;;;;5031168;28;20497;-65
2022/01/10 14:03:28;;;;;;;9.13;5.00;;;;;;;;;;5027782;28;20459;-64
2022/01/10 14:06:12;;;;;;;5.57;5.03;;;;;;;;;;5031573;28;20424;-68
2022/01/10 14:08:39;;;;;;;13.37;6.27;;;;;;;;;;5028812;28;20877;-66
2022/01/10 14:11:06;;;;;;;8.43;5.23;;;;;;;;;;5030818;28;20738;-65
2022/01/10 14:13:32;;;;;;;5.20;4.40;;;;;;;;;;5026995;28;20885;-64
2022/01/10 14:15:58;;;;;;;12.70;8.40;;;;;;;;;;5031208;28;20470;-65
2022/01/10 14:18:25;;;;;;;48.17;21.30;;;;;;;;;;5027290;28;20860;-66
2022/01/10 14:20:51;;;;;;;13.10;7.23;;;;;;;;;;5031097;28;20887;-65
2022/01/10 14:23:19;;;;;;;10.90;5.67;;;;;;;;;;5027511;28;20951;-65
2022/01/10 14:25:45;;;;;;;8.50;4.80;;;;;;;;;;5027226;28;20459;-65
2022/01/10 14:28:11;;;;;;;6.90;5.13;;;;;;;;;;5029563;28;20431;-64
2022/01/10 14:30:37;;;;;;;6.13;5.60;;;;;;;;;;5028313;28;20436;-64
2022/01/10 14:33:03;;;;;;;6.63;5.30;;;;;;;;;;5031380;28;20434;-65
2022/01/10 14:35:30;;;;;;;11.13;4.80;;;;;;;;;;5028261;28;20710;-66
2022/01/10 14:37:56;;;;;;;5.00;4.50;;;;;;;;;;5031238;28;20454;-65
2022/01/10 14:40:22;;;;;;;14.93;5.27;;;;;;;;;;5029653;28;20427;-65
2022/01/10 14:42:50;;;;;;;5.63;5.13;;;;;;;;;;5027900;28;20458;-65
2022/01/10 14:45:18;;;;;;;9.40;8.23;;;;;;;;;;5029019;28;20431;-65
2022/01/10 14:47:44;;;;;;;11.57;7.27;;;;;;;;;;5030296;28;20435;-66
2022/01/10 14:50:15;;;;;;;15.60;11.07;;;;;;;;;;5028723;28;20435;-65